LIML Airport Information

Runway Information
Runway 18L Length 8005 ft width 197 ft
Elevation 353 ft Threshold 0 ft Heading 176
Runway 36R Length 8005 ft Width 197 ft
Elevation 337 ft Threshold 0 ft Heading 356
Runway 18R Length 1972 ft width 72 ft
Elevation 353 ft Threshold 0 ft Heading 176
Runway 36L Length 1972 ft Width 72 ft
Elevation 349 ft Threshold 0 ft Heading 356
Airport Frequencies
Type APP Name MILANO APP Frequency 132.7 MHZ
Type ATIS Name ATIS Frequency 135.55 MHZ
Type DEP Name MILANO DEP Frequency 126.75 MHZ
Type GND Name GND Frequency 121.8 MHZ
Type TWR Name TWR Frequency 118.1 MHZ
Airport Navaids
Type VOR-DME Name Linate Frequency 112250 KHZ
Type NDB Name Linate Frequency 386 KHZ
Airport Weather Information & NOTAM
ADDS - METARS form results

(0459 UTC 27 January 2021)
Data provider http://aviationweather.gov/metar/data/
 
METAR text: LIML 270450Z VRB01KT CAVOK M02/M07 Q1017 NOSIG
Conditions at: LIML (MILANO/LINATE , IT) observed 0450 UTC 27 January 2021
Temperature: -2.0°C (28°F)
Dewpoint: -7.0°C (19°F) [RH = 69%]
Pressure (altimeter): 30.03 inches Hg (1017.0 mb)
Winds: variable direction winds at 1 MPH (1 knots; 0.5 m/s)
Visibility: 6 or more miles (10+ km)
Ceiling: ceiling and visibility are OK
Clouds: unknown
Weather: no significant weather observed at this time

METAR text: LIML 270420Z VRB01KT CAVOK M02/M08 Q1017 NOSIG
Conditions at: LIML (MILANO/LINATE , IT) observed 0420 UTC 27 January 2021
Temperature: -2.0°C (28°F)
Dewpoint: -8.0°C (18°F) [RH = 63%]
Pressure (altimeter): 30.03 inches Hg (1017.0 mb)
Winds: variable direction winds at 1 MPH (1 knots; 0.5 m/s)
Visibility: 6 or more miles (10+ km)
Ceiling: ceiling and visibility are OK
Clouds: unknown
Weather: no significant weather observed at this time

Forecast for: LIML (MILANO/LINATE , IT)
Text: TAF LIML 262300Z 2700/2724 31005KT CAVOK
Forecast period: 0000 UTC 27 January 2021 to 0000 UTC 28 January 2021
Forecast type: FROM: standard forecast or significant change
Winds: from the NW (310 degrees) at 6 MPH (5 knots; 2.6 m/s)
Visibility: 6 or more miles (10+ km)
Ceiling: unknown
Clouds: missing
Weather: NSW  (no significant weather)